createdAt,value
2023-03-26T00:01:33.722Z,97599.84
2023-03-26T00:04:02.989Z,97604.86
2023-03-26T00:06:34.923Z,97604.91
2023-03-26T00:09:04.482Z,97604.61
2023-03-26T00:11:33.516Z,97607.55
2023-03-26T00:14:02.688Z,97609.65
2023-03-26T00:16:34.481Z,97607.14
2023-03-26T00:19:03.964Z,97616.27
2023-03-26T00:21:32.888Z,97609.80
2023-03-26T00:24:04.257Z,97618.89
2023-03-26T00:26:33.507Z,97614.30
2023-03-26T00:29:03.719Z,97619.25
2023-03-26T00:31:32.829Z,97618.75
2023-03-26T00:34:03.543Z,97624.25
2023-03-26T00:36:35.680Z,97628.90
2023-03-26T00:39:05.541Z,97630.47
2023-03-26T00:41:37.313Z,97625.88
2023-03-26T00:44:06.527Z,97626.44
2023-03-26T00:46:36.342Z,97621.14
2023-03-26T00:49:05.382Z,97619.46
2023-03-26T00:51:35.033Z,97624.63
2023-03-26T00:54:03.888Z,97621.41
2023-03-26T00:56:32.931Z,97620.94
2023-03-26T00:59:01.877Z,97610.17
2023-03-26T01:01:32.351Z,97612.26
2023-03-26T01:04:15.555Z,97608.51
2023-03-26T01:06:45.232Z,97608.88
2023-03-26T01:09:15.959Z,97607.55
2023-03-26T01:11:45.440Z,97602.30
2023-03-26T01:14:15.547Z,97596.85
2023-03-26T01:16:46.002Z,97594.84
2023-03-26T01:19:16.554Z,97595.05
2023-03-26T01:21:47.323Z,97596.10
2023-03-26T01:24:16.171Z,97594.08
2023-03-26T01:26:58.917Z,97589.98
2023-03-26T01:29:31.685Z,97589.98
2023-03-26T01:32:09.372Z,97584.96
2023-03-26T01:34:41.752Z,97581.16
2023-03-26T01:37:13.490Z,97581.08
2023-03-26T01:39:49.061Z,97582.22
2023-03-26T01:42:19.066Z,97580.77
2023-03-26T01:44:49.029Z,97576.20
2023-03-26T01:47:17.916Z,97575.11
2023-03-26T01:49:46.642Z,97573.49
2023-03-26T01:52:16.416Z,97575.16
2023-03-26T01:54:46.693Z,97574.41
2023-03-26T01:57:18.378Z,97572.46
2023-03-26T01:59:54.707Z,97571.05
2023-03-26T02:02:26.233Z,97571.34
2023-03-26T02:04:55.908Z,97572.14
2023-03-26T02:07:28.601Z,97568.33
2023-03-26T02:09:58.694Z,97564.88
2023-03-26T02:12:27.612Z,97556.27
2023-03-26T02:14:56.632Z,97552.48
2023-03-26T02:17:25.635Z,97543.35
2023-03-26T02:19:54.634Z,97539.55
2023-03-26T02:22:30.006Z,97534.37
2023-03-26T02:24:59.319Z,97528.52
2023-03-26T02:27:28.331Z,97528.48
2023-03-26T02:29:57.080Z,97527.45
2023-03-26T02:32:28.653Z,97526.27
2023-03-26T02:34:58.199Z,97523.91
2023-03-26T02:37:27.078Z,97520.85
2023-03-26T02:40:01.346Z,97507.84
2023-03-26T02:42:33.103Z,97506.67
2023-03-26T02:45:02.161Z,97504.30
2023-03-26T02:47:57.456Z,97501.77
2023-03-26T02:50:44.762Z,97500.61
2023-03-26T02:53:32.036Z,97497.73
2023-03-26T02:56:16.663Z,97501.38
2023-03-26T02:58:56.988Z,97493.90
2023-03-26T03:01:26.006Z,97493.27
2023-03-26T03:03:56.756Z,97498.47
2023-03-26T03:06:35.778Z,97498.85
2023-03-26T03:09:05.273Z,97496.97
2023-03-26T03:11:40.760Z,97498.98
2023-03-26T03:14:10.228Z,97493.78
2023-03-26T03:16:41.124Z,97492.17
2023-03-26T03:19:12.728Z,97484.89
2023-03-26T03:21:42.109Z,97481.05
2023-03-26T03:24:11.554Z,97468.30
2023-03-26T03:26:45.625Z,97462.72
2023-03-26T03:29:46.465Z,97456.67
2023-03-26T03:32:48.061Z,97454.55
2023-03-26T03:35:21.268Z,97454.33
2023-03-26T03:37:53.153Z,97447.61
2023-03-26T03:40:22.224Z,97440.36
2023-03-26T03:42:51.452Z,97434.52
2023-03-26T03:45:27.865Z,97434.17
2023-03-26T03:48:08.715Z,97434.32
2023-03-26T03:50:42.009Z,97431.05
2023-03-26T03:53:40.617Z,97429.31
2023-03-26T03:56:11.043Z,97426.56
2023-03-26T03:58:59.590Z,97426.57
2023-03-26T04:01:35.194Z,97421.23
2023-03-26T04:04:09.140Z,97416.41
2023-03-26T04:07:01.150Z,97411.95
2023-03-26T04:09:37.174Z,97409.88
2023-03-26T04:12:12.372Z,97407.77
2023-03-26T04:14:49.310Z,97411.65
2023-03-26T04:17:23.917Z,97412.63
2023-03-26T04:19:55.739Z,97412.38
2023-03-26T04:22:36.475Z,97406.46
2023-03-26T04:25:08.141Z,97402.96
2023-03-26T04:27:47.915Z,97400.84
2023-03-26T04:30:38.303Z,97393.95
2023-03-26T04:33:17.488Z,97385.00
2023-03-26T04:35:48.316Z,97379.15
2023-03-26T04:38:18.339Z,97375.38
2023-03-26T04:40:49.468Z,97370.87
2023-03-26T04:43:35.557Z,97362.90
2023-03-26T04:46:34.973Z,97362.31
2023-03-26T04:49:12.286Z,97355.73
2023-03-26T04:51:42.425Z,97348.45
2023-03-26T04:54:25.432Z,97336.27
2023-03-26T04:57:00.161Z,97335.02
2023-03-26T04:59:35.393Z,97328.66
2023-03-26T05:02:08.309Z,97323.55
2023-03-26T05:04:46.059Z,97322.23
2023-03-26T05:07:16.961Z,97317.47
2023-03-26T05:09:49.371Z,97310.81
2023-03-26T05:12:23.624Z,97305.50
2023-03-26T05:14:59.994Z,97307.02
2023-03-26T05:17:48.780Z,97301.86
2023-03-26T05:20:40.642Z,97293.59
2023-03-26T05:23:10.850Z,97283.79
2023-03-26T05:25:49.175Z,97272.11
2023-03-26T05:28:21.009Z,97263.86
2023-03-26T05:30:56.790Z,97259.23
2023-03-26T05:33:27.225Z,97257.51
2023-03-26T05:36:03.352Z,97246.89
2023-03-26T05:38:33.573Z,97240.21
2023-03-26T05:41:03.280Z,97237.30
2023-03-26T05:43:32.387Z,97226.15
2023-03-26T05:46:09.971Z,97217.23
2023-03-26T05:48:39.543Z,97212.41
2023-03-26T05:51:09.274Z,97211.91
2023-03-26T05:53:38.971Z,97211.90
2023-03-26T05:56:26.143Z,97211.54
2023-03-26T05:59:01.117Z,97208.20
2023-03-26T06:01:54.762Z,97206.89
2023-03-26T06:04:40.839Z,97199.74
2023-03-26T06:07:36.024Z,97211.95
2023-03-26T06:10:25.075Z,97209.67
2023-03-26T06:12:54.435Z,97205.91
2023-03-26T06:15:23.383Z,97206.05
2023-03-26T06:18:01.476Z,97201.95
2023-03-26T06:20:39.041Z,97198.77
2023-03-26T06:23:34.240Z,97192.46
2023-03-26T06:26:14.429Z,97186.48
2023-03-26T06:28:57.213Z,97182.25
2023-03-26T06:31:44.844Z,97171.69
2023-03-26T06:34:20.670Z,97170.75
2023-03-26T06:36:52.656Z,97168.63
2023-03-26T06:39:23.087Z,97161.68
2023-03-26T06:42:10.434Z,97157.52
2023-03-26T06:44:58.893Z,97154.38
2023-03-26T06:47:36.335Z,97155.05
2023-03-26T06:50:23.547Z,97154.48
2023-03-26T06:53:15.814Z,97150.48
2023-03-26T06:56:12.955Z,97138.73
2023-03-26T06:59:00.746Z,97145.80
2023-03-26T07:01:48.602Z,97140.08
2023-03-26T07:04:36.598Z,97137.49
2023-03-26T07:07:25.698Z,97132.30
2023-03-26T07:10:13.235Z,97135.70
2023-03-26T07:13:00.784Z,97136.39
2023-03-26T07:15:29.543Z,97133.99
2023-03-26T07:18:16.865Z,97136.77
2023-03-26T07:20:47.632Z,97130.77
2023-03-26T07:23:20.099Z,97120.40
2023-03-26T07:25:59.495Z,97123.75
2023-03-26T07:28:36.178Z,97118.83
2023-03-26T07:31:17.138Z,97116.95
2023-03-26T07:33:53.746Z,97112.04
2023-03-26T07:36:32.515Z,97107.20
2023-03-26T07:39:32.148Z,97099.41
2023-03-26T07:42:25.926Z,97092.13
2023-03-26T07:45:17.648Z,97087.32
2023-03-26T07:48:06.930Z,97086.67
2023-03-26T07:51:03.402Z,97080.58
2023-03-26T07:53:55.593Z,97073.45
2023-03-26T07:56:41.420Z,97066.49
2023-03-26T07:59:38.156Z,97066.84
2023-03-26T08:02:50.502Z,97062.52
2023-03-26T08:05:39.238Z,97029.40
2023-03-26T08:08:11.879Z,97054.67
2023-03-26T08:10:50.402Z,97053.30
2023-03-26T08:13:22.575Z,97051.66
2023-03-26T08:15:57.684Z,97054.02
2023-03-26T08:18:30.750Z,97047.57
2023-03-26T08:21:00.932Z,97052.35
2023-03-26T08:23:31.001Z,97045.38
2023-03-26T08:26:02.411Z,97042.98
2023-03-26T08:28:38.520Z,97043.48
2023-03-26T08:31:08.467Z,97043.90
2023-03-26T08:33:38.369Z,97042.16
2023-03-26T08:36:07.864Z,97044.66
2023-03-26T08:38:36.792Z,97040.67
2023-03-26T08:41:23.475Z,97038.42
2023-03-26T08:44:06.979Z,97035.10
2023-03-26T08:46:49.330Z,97036.98
2023-03-26T08:49:31.830Z,97037.58
2023-03-26T08:52:21.657Z,97035.29
2023-03-26T08:55:08.180Z,97033.52
2023-03-26T08:57:41.822Z,97015.52
2023-03-26T09:00:16.616Z,96998.71
2023-03-26T09:03:02.326Z,96997.70
2023-03-26T09:05:59.651Z,96995.82
2023-03-26T09:08:36.707Z,96996.74
2023-03-26T09:11:10.321Z,96995.70
2023-03-26T09:13:52.757Z,97001.04
2023-03-26T09:16:28.985Z,97007.98
2023-03-26T09:19:06.126Z,97015.94
2023-03-26T09:21:48.144Z,97019.23
2023-03-26T09:24:27.654Z,97013.01
2023-03-26T09:27:01.653Z,97001.88
2023-03-26T09:29:38.884Z,96999.61
2023-03-26T09:32:21.438Z,96998.13
2023-03-26T09:35:01.511Z,97001.87
2023-03-26T09:37:33.670Z,96992.98
2023-03-26T09:40:06.225Z,96986.79
2023-03-26T09:42:38.551Z,96985.46
2023-03-26T09:45:15.026Z,96982.39
2023-03-26T09:47:53.859Z,96970.07
2023-03-26T09:50:26.526Z,96973.14
2023-03-26T09:52:58.535Z,96969.67
2023-03-26T09:55:32.527Z,96973.35
2023-03-26T09:58:08.408Z,96972.30
2023-03-26T10:00:39.302Z,96968.11
2023-03-26T10:03:20.070Z,96967.52
2023-03-26T10:06:01.071Z,96967.31
2023-03-26T10:08:33.845Z,96962.71
2023-03-26T10:11:04.441Z,96960.64
2023-03-26T10:13:34.152Z,96961.92
2023-03-26T10:16:16.768Z,96963.10
2023-03-26T10:18:49.880Z,96956.91
2023-03-26T10:21:22.106Z,96951.92
2023-03-26T10:23:57.788Z,96938.60
2023-03-26T10:26:30.635Z,96937.00
2023-03-26T10:29:09.292Z,96935.09
2023-03-26T10:31:40.523Z,96941.00
2023-03-26T10:34:28.525Z,96940.94
2023-03-26T10:37:01.079Z,96938.51
2023-03-26T10:39:49.420Z,96935.02
2023-03-26T10:42:23.111Z,96930.98
2023-03-26T10:44:56.379Z,96930.94
2023-03-26T10:47:28.849Z,96921.76
2023-03-26T10:50:11.357Z,96907.54
2023-03-26T10:52:40.546Z,96907.65
2023-03-26T10:55:12.611Z,96912.20
2023-03-26T10:57:42.400Z,96911.28
2023-03-26T11:00:25.436Z,96904.93
2023-03-26T11:03:01.501Z,96904.54
2023-03-26T11:05:35.621Z,96903.93
2023-03-26T11:08:05.383Z,96900.56
2023-03-26T11:10:37.170Z,96893.06
2023-03-26T11:13:07.718Z,96893.11
2023-03-26T11:15:37.014Z,96890.23
2023-03-26T11:18:07.842Z,96884.98
2023-03-26T11:20:38.766Z,96884.33
2023-03-26T11:23:12.924Z,96887.50
2023-03-26T11:25:44.835Z,96895.09
2023-03-26T11:28:19.295Z,96891.28
2023-03-26T11:30:50.423Z,96887.49
2023-03-26T11:41:16.261Z,96885.29
2023-03-26T11:43:56.628Z,96885.16
2023-03-26T11:46:27.235Z,96877.05
2023-03-26T11:48:58.291Z,96868.56
2023-03-26T11:51:29.161Z,96875.52
2023-03-26T11:53:58.764Z,96870.66
2023-03-26T11:56:28.619Z,96873.23
2023-03-26T11:58:58.048Z,96871.35
2023-03-26T12:01:30.565Z,96865.90
2023-03-26T12:04:04.335Z,96861.58
2023-03-26T12:06:34.746Z,96852.17
2023-03-26T12:09:03.979Z,96843.92
2023-03-26T12:11:35.538Z,96837.63
2023-03-26T12:14:05.628Z,96829.66
2023-03-26T12:16:34.607Z,96821.46
2023-03-26T12:19:05.380Z,96822.03
2023-03-26T12:21:34.139Z,96819.02
2023-03-26T12:24:04.762Z,96814.20
2023-03-26T12:26:39.760Z,96816.29
2023-03-26T12:29:10.903Z,96810.58
2023-03-26T12:31:44.722Z,96806.48
2023-03-26T12:34:17.735Z,96789.92
2023-03-26T12:36:50.755Z,96792.38
2023-03-26T12:40:08.758Z,96795.31
2023-03-26T12:44:47.435Z,96788.92
2023-03-26T12:45:23.412Z,96794.70
2023-03-26T12:48:00.848Z,96794.29
2023-03-26T12:50:37.849Z,96782.40
2023-03-26T12:53:14.899Z,96774.35
2023-03-26T12:55:46.352Z,96783.61
2023-03-26T13:01:06.689Z,96790.63
2023-03-26T13:03:41.885Z,96787.39
2023-03-26T13:06:21.650Z,96784.11
2023-03-26T13:08:54.872Z,96783.34
2023-03-26T13:11:25.512Z,96785.88
2023-03-26T13:14:06.440Z,96778.14
2023-03-26T13:16:38.718Z,96779.89
2023-03-26T13:19:11.788Z,96765.30
2023-03-26T13:21:45.190Z,96760.23
2023-03-26T13:24:17.270Z,96750.23
2023-03-26T13:26:51.292Z,96750.37
2023-03-26T13:29:21.921Z,96748.02
2023-03-26T13:31:54.140Z,96751.81
2023-03-26T13:34:30.306Z,96750.38
2023-03-26T13:37:01.600Z,96744.46
2023-03-26T13:39:33.134Z,96732.15
2023-03-26T13:42:07.088Z,96729.26
2023-03-26T13:44:38.276Z,96722.59
2023-03-26T13:47:08.646Z,96723.73
2023-03-26T13:49:41.045Z,96727.16
2023-03-26T13:52:11.362Z,96734.17
2023-03-26T13:54:44.130Z,96740.84
2023-03-26T13:57:15.410Z,96759.61
2023-03-26T13:59:45.825Z,96755.02
2023-03-26T14:02:17.875Z,96746.52
2023-03-26T14:04:47.338Z,96736.38
2023-03-26T14:07:21.152Z,96733.64
2023-03-26T14:09:51.942Z,96726.04
2023-03-26T14:12:23.099Z,96719.84
2023-03-26T14:14:52.757Z,96718.77
2023-03-26T14:17:22.510Z,96717.48
2023-03-26T14:20:02.068Z,96713.38
2023-03-26T14:22:33.462Z,96724.70
2023-03-26T14:25:05.401Z,96728.70
2023-03-26T14:27:38.339Z,96725.34
2023-03-26T14:30:14.793Z,96719.09
2023-03-26T14:33:16.369Z,96719.70
2023-03-26T14:36:01.070Z,96718.80
2023-03-26T14:38:42.416Z,96707.02
2023-03-26T14:41:17.894Z,96710.05
2023-03-26T14:43:57.050Z,96713.75
2023-03-26T14:46:41.569Z,96718.73
2023-03-26T14:49:26.636Z,96707.83
2023-03-26T14:52:10.775Z,96709.34
2023-03-26T14:54:41.569Z,96716.00
2023-03-26T14:57:35.899Z,96713.86
2023-03-26T15:00:39.910Z,96709.29
2023-03-26T15:03:22.699Z,96705.82
2023-03-26T15:06:10.810Z,96702.89
2023-03-26T15:08:53.320Z,96696.98
2023-03-26T15:11:25.662Z,96700.34
2023-03-26T15:14:08.084Z,96700.39
2023-03-26T15:16:50.006Z,96702.20
2023-03-26T15:19:32.490Z,96697.33
2023-03-26T15:22:10.156Z,96699.10
2023-03-26T15:24:52.458Z,96698.12
2023-03-26T15:27:44.019Z,96702.04
2023-03-26T15:30:28.395Z,96710.29
2023-03-26T15:33:10.933Z,96740.02
2023-03-26T15:35:57.488Z,96779.77
2023-03-26T15:38:43.272Z,96796.86
2023-03-26T15:41:19.437Z,96790.96
2023-03-26T15:44:24.543Z,96793.48
2023-03-26T15:46:59.069Z,96812.73
2023-03-26T15:49:32.688Z,96815.70
2023-03-26T15:52:05.562Z,96831.81
2023-03-26T15:54:37.299Z,96825.17
2023-03-26T16:03:09.544Z,96823.96
2023-03-26T16:05:41.931Z,96803.33
2023-03-26T16:08:15.521Z,96787.02
2023-03-26T16:10:44.926Z,96786.19
2023-03-26T16:13:33.034Z,96785.73
2023-03-26T16:16:18.094Z,96785.64
2023-03-26T16:18:47.164Z,96791.14
2023-03-26T16:21:42.223Z,96801.50
2023-03-26T16:24:19.281Z,96808.08
2023-03-26T16:26:54.042Z,96816.00
2023-03-26T16:29:26.468Z,96823.71
2023-03-26T16:32:14.956Z,96823.58
2023-03-26T16:34:47.496Z,96829.71
2023-03-26T16:37:29.844Z,96827.17
2023-03-26T16:40:02.463Z,96831.77
2023-03-26T16:42:37.476Z,96833.07
2023-03-26T16:45:14.227Z,96834.08
2023-03-26T16:47:45.832Z,96826.34
2023-03-26T16:50:18.713Z,96842.46
2023-03-26T16:52:51.888Z,96844.11
2023-03-26T16:55:23.454Z,96850.14
2023-03-26T16:57:56.170Z,96848.04
2023-03-26T17:00:38.644Z,96849.06
2023-03-26T17:03:12.927Z,96849.89
2023-03-26T17:05:44.896Z,96853.89
2023-03-26T17:08:16.339Z,96853.23
2023-03-26T17:10:47.630Z,96856.42
2023-03-26T17:13:20.354Z,96859.41
2023-03-26T17:15:52.038Z,96859.19
2023-03-26T17:18:26.398Z,96860.17
2023-03-26T17:21:00.168Z,96864.04
2023-03-26T17:23:32.396Z,96869.13
2023-03-26T17:26:08.470Z,96870.48
2023-03-26T17:28:48.303Z,96874.45
2023-03-26T17:31:21.183Z,96877.23
2023-03-26T17:33:50.727Z,96876.25
2023-03-26T17:36:29.121Z,96875.62
2023-03-26T17:39:11.496Z,96883.84
2023-03-26T17:41:56.629Z,96883.45
2023-03-26T17:44:38.330Z,96888.95
2023-03-26T17:47:08.511Z,96887.39
2023-03-26T17:49:37.933Z,96890.29
2023-03-26T17:52:14.407Z,96900.09
2023-03-26T17:54:44.192Z,96903.89
2023-03-26T17:57:14.200Z,96903.67
2023-03-26T17:59:43.134Z,96903.91
2023-03-26T18:02:17.577Z,96903.72
2023-03-26T18:04:51.052Z,96902.95
2023-03-26T18:07:36.209Z,96905.18
2023-03-26T18:10:12.820Z,96905.43
2023-03-26T18:12:45.698Z,96904.45
2023-03-26T18:15:34.183Z,96905.38
2023-03-26T18:18:09.512Z,96908.89
2023-03-26T18:20:38.346Z,96911.92
2023-03-26T18:23:13.703Z,96900.66
2023-03-26T18:25:43.142Z,96909.29
2023-03-26T18:28:13.767Z,96909.23
2023-03-26T18:30:47.249Z,96908.45
2023-03-26T18:33:16.823Z,96910.45
2023-03-26T18:35:46.298Z,96910.88
2023-03-26T18:38:18.613Z,96909.73
2023-03-26T18:41:05.826Z,96915.05
2023-03-26T18:43:35.755Z,96912.98
2023-03-26T18:46:13.954Z,96911.60
2023-03-26T18:48:42.889Z,96913.98
2023-03-26T18:51:11.827Z,96911.07
2023-03-26T18:53:42.101Z,96911.05
2023-03-26T18:56:21.399Z,96910.17
2023-03-26T18:58:52.428Z,96918.74
2023-03-26T19:01:25.776Z,96920.77
2023-03-26T19:03:55.429Z,96918.16
2023-03-26T19:06:24.644Z,96925.30
2023-03-26T19:08:54.511Z,96928.13
2023-03-26T19:11:24.087Z,96931.40
2023-03-26T19:13:59.917Z,96925.05
2023-03-26T19:16:34.728Z,96930.00
2023-03-26T19:19:04.756Z,96930.16
2023-03-26T19:21:34.119Z,96932.61
2023-03-26T19:24:03.910Z,96933.84
2023-03-26T19:26:33.402Z,96935.77
2023-03-26T19:29:02.636Z,96938.94
2023-03-26T19:31:36.106Z,96939.48
2023-03-26T19:34:06.727Z,96936.63
2023-03-26T19:36:37.117Z,96940.46
2023-03-26T19:39:11.591Z,96929.65
2023-03-26T19:41:40.959Z,96942.77
2023-03-26T19:44:17.440Z,96944.84
2023-03-26T19:46:53.586Z,96946.67
2023-03-26T19:49:31.249Z,96946.43
2023-03-26T19:52:10.880Z,96946.51
2023-03-26T19:54:59.890Z,96952.07
2023-03-26T19:57:29.976Z,96947.32
2023-03-26T19:59:59.513Z,96955.44
2023-03-26T20:02:28.543Z,96946.77
2023-03-26T20:04:57.602Z,96964.83
2023-03-26T20:07:35.974Z,96968.27
2023-03-26T20:10:06.504Z,96958.99
2023-03-26T20:12:35.357Z,96969.33
2023-03-26T20:15:07.041Z,96971.98
2023-03-26T20:17:50.214Z,96974.33
2023-03-26T20:20:19.661Z,96972.09
2023-03-26T20:22:49.506Z,96978.29
2023-03-26T20:25:20.104Z,96979.88
2023-03-26T20:27:49.082Z,96979.35
2023-03-26T20:30:27.511Z,96988.61
2023-03-26T20:33:12.184Z,96992.98
2023-03-26T20:35:43.141Z,96994.06
2023-03-26T20:38:12.026Z,96999.38
2023-03-26T20:40:41.594Z,97007.43
2023-03-26T20:43:14.251Z,97014.30
2023-03-26T20:45:43.248Z,97017.10
2023-03-26T20:48:12.194Z,97025.73
2023-03-26T20:50:50.244Z,97030.81
2023-03-26T20:53:20.357Z,97033.66
2023-03-26T20:55:51.463Z,97036.86
2023-03-26T20:58:31.667Z,97041.40
2023-03-26T21:01:02.463Z,97047.28
2023-03-26T21:03:32.146Z,97048.66
2023-03-26T21:06:04.918Z,97051.98
2023-03-26T21:08:37.353Z,97053.63
2023-03-26T21:11:11.314Z,97058.27
2023-03-26T21:13:40.652Z,97069.54
2023-03-26T21:16:10.462Z,97070.86
2023-03-26T21:18:39.928Z,97079.20
2023-03-26T21:21:21.073Z,97081.88
2023-03-26T21:23:56.045Z,97091.21
2023-03-26T21:26:26.001Z,97095.33
2023-03-26T21:28:54.933Z,97096.36
2023-03-26T21:31:24.260Z,97090.47
2023-03-26T21:33:55.089Z,97107.57
2023-03-26T21:36:24.343Z,97110.21
2023-03-26T21:38:54.581Z,97111.83
2023-03-26T21:41:27.190Z,97118.70
2023-03-26T21:43:55.990Z,97121.48
2023-03-26T21:46:25.534Z,97125.27
2023-03-26T21:48:54.971Z,97130.63
2023-03-26T21:51:24.697Z,97136.84
2023-03-26T21:53:54.605Z,97141.39
2023-03-26T21:56:27.609Z,97150.04
2023-03-26T21:58:58.025Z,97150.63
2023-03-26T22:01:29.749Z,97156.48
2023-03-26T22:04:01.958Z,97163.70
2023-03-26T22:06:32.236Z,97164.45
2023-03-26T22:09:02.016Z,97177.73
2023-03-26T22:11:30.881Z,97185.85
2023-03-26T22:13:59.633Z,97193.44
2023-03-26T22:16:28.532Z,97201.88
2023-03-26T22:18:57.623Z,97219.55
2023-03-26T22:21:26.795Z,97213.39
2023-03-26T22:23:55.749Z,97216.52
2023-03-26T22:26:24.764Z,97225.70
2023-03-26T22:28:53.577Z,97215.77
2023-03-26T22:31:22.718Z,97234.28
2023-03-26T22:33:51.880Z,97240.33
2023-03-26T22:36:22.745Z,97243.29
2023-03-26T22:38:54.472Z,97248.17
2023-03-26T22:41:23.595Z,97240.73
2023-03-26T22:43:54.427Z,97250.50
2023-03-26T22:46:23.532Z,97261.17
2023-03-26T22:48:52.844Z,97263.63
2023-03-26T22:51:21.752Z,97267.61
2023-03-26T22:53:50.734Z,97278.11
2023-03-26T22:56:19.553Z,97271.17
2023-03-26T22:58:48.658Z,97281.42
2023-03-26T23:01:18.550Z,97289.69
2023-03-26T23:03:47.588Z,97296.61
2023-03-26T23:06:17.157Z,97304.04
2023-03-26T23:08:46.329Z,97306.11
2023-03-26T23:11:16.099Z,97316.91
2023-03-26T23:13:45.261Z,97318.83
2023-03-26T23:16:14.731Z,97331.34
2023-03-26T23:18:43.725Z,97341.50
2023-03-26T23:21:15.299Z,97343.92
2023-03-26T23:23:44.147Z,97358.69
2023-03-26T23:26:13.491Z,97362.48
2023-03-26T23:28:43.213Z,97369.69
2023-03-26T23:31:13.478Z,97375.51
2023-03-26T23:33:45.694Z,97383.34
2023-03-26T23:36:17.396Z,97382.17
2023-03-26T23:38:47.590Z,97399.90
2023-03-26T23:41:16.536Z,97401.41
2023-03-26T23:43:54.635Z,97396.81
2023-03-26T23:46:24.894Z,97415.74
2023-03-26T23:48:54.801Z,97428.62
2023-03-26T23:51:23.982Z,97435.11
2023-03-26T23:53:53.440Z,97445.55
2023-03-26T23:56:22.788Z,97456.84
2023-03-26T23:58:51.624Z,97458.55
